Tiempo atmosférico en la estación meteorológica de Pinoso, Alacant/Alicante (575 m.)



Fecha
DESCASC
Temp. máxima en grados centígrados (hora)
DESCASC
Temp. mínima en grados centígrados (hora)
DESCASC
Temp. media en grados centígrados
DESCASC
Racha de viento máxima en m/sg (hora)
DESCASC
Velocidad máxima media en intervalos de 10 minutos(hora)
DESCASC
Precipitaciones diarias en mm
DESCASC
Precipitaciones de 00:00 a 06:00 en mm
DESCASC
Precipitaciones de 06:00 a 12:00 en mm
DESCASC
Precipitaciones de 12:00 a 18:00 en mm
DESCASC
Precipitaciones de 18:00 a 24:00 en mm
DESCASC
16-01-2020 17.5 (14:50) 0.7 (01:30) 9.1 5.28 (15:50) 2.5 (15:30) 0 0 0 0 0
15-01-2020 15.8 (14:50) -1.2 (08:30) 7.3 5 (15:10) 2.78 (15:00) 0 0 0 0 0
14-01-2020 14.5 (15:40) 0.4 (01:00) 7.5 5.28 (13:50) 2.78 (14:20) 0 0 0 0 0
13-01-2020 14.5 (14:30) -4.5 (08:50) 5 4.44 (12:50) 2.5 (12:50) 0 0 0 0 0
12-01-2020 14.9 (15:20) -3.6 (-00:0) 5.6 6.94 (13:40) 2.78 (14:00) 0 0 0 0 0
11-01-2020 14 (15:10) -0.4 (00:00) 6.8 5 (11:20) 2.5 (00:30) 0 0 0 0 0
10-01-2020 13.5 (14:40) 1.3 (00:00) 7.4 13.06 (20:10) 8.33 (20:20) 0 0 0 0 0
09-01-2020 14.4 (15:10) 3.3 (00:00) 8.8 3.89 (18:30) 2.22 (18:30) 0.2 0.2 0 0 0
08-01-2020 15.2 (13:50) -1 (-00:0) 7.1 5.28 (12:20) 3.61 (15:00) 0 0 0 0 0
07-01-2020 16.3 (14:50) -1.2 (-00:0) 7.5 3.89 (17:30) 2.22 (17:30) 0 0 0 0 0
06-01-2020 16.6 (15:20) -1.1 (-00:0) 7.8 3.61 (17:10) 2.22 (17:20) 0 0 0 0 0
05-01-2020 16.2 (16:00) -1.3 (-00:0) 7.5 2.78 (13:30) 1.39 (19:10) 0.2 0 0.2 0 0
04-01-2020 14.2 (14:40) -0.3 (00:00) 6.9 3.89 (14:30) 1.67 (17:10) 0 0 0 0 0
03-01-2020 18.2 (14:50) -0.6 (-00:0) 8.8 5.83 (21:50) 3.06 (22:00) 0 0 0 0 0
02-01-2020 7.6 (15:20) 0.8 (00:00) 4.2 2.5 (08:00) 1.39 (08:00) 0.4 0.2 0.2 0 0
01-01-2020 16.2 (15:10) 0.2 (00:00) 8.2 4.17 (17:00) 2.5 (17:00) 0.4 0.2 0.2 0 0
31-12-2019 13.3 (15:40) 0.7 (00:00) 7 4.72 (16:00) 2.78 (16:00) 0 0 0 0 0
30-12-2019 14.1 (14:30) 1 (00:00) 7.6 4.72 (16:20) 2.22 (14:40) 0.4 0.4 0 0 0
29-12-2019 14.4 (15:40) 1.6 (00:00) 8 4.17 (14:40) 1.67 (15:20) 0.2 0 0.2 0 0
28-12-2019 17.5 (14:20) -0.5 (-00:0) 8.5 4.72 (14:40) 2.5 (16:50) 0.2 0 0 0 0.2
27-12-2019 18.4 (15:10) 1.8 (00:00) 10.1 3.33 (13:50) 1.39 (14:10) 0 0 0 0 0
26-12-2019 21.3 (13:40) 4.3 (00:00) 12.8 6.11 (06:10) 2.5 (15:00) 0 0 0 0 0
25-12-2019 22 (15:10) 1.4 (00:00) 11.7 3.33 (13:30) 1.67 (13:30) 0 0 0 0 0
24-12-2019 20.4 (15:30) 3 (00:00) 11.7 4.17 (16:00) 2.5 (14:00) 0 0 0 0 0
23-12-2019 19.6 (15:40) 8 (00:00) 13.8 12.5 (01:30) 4.17 (00:20) 0 0 0 0 0
22-12-2019 18.5 (14:50) 13.3 (00:00) 15.9 20.56 (02:00) 9.17 (01:50) 0 0 0 0 0
21-12-2019 21.6 (15:00) 13.4 (00:00) 17.5 19.44 (19:50) 7.78 (20:40) 0.2 0 0.2 0 0
20-12-2019 15.2 (11:30) 11.7 (00:00) 13.4 12.78 (08:10) 6.39 (08:10) 6 0 0 6 0

Gráficas

Temp. máximas Temp. mínimas Temp. medias Precipitaciones Rachas de viento máximas Velocidades máximas media en intervalos de 10 minutos

Datos horarios

Fecha y hora oficial Temperatura (ºC) Velocidad del viento (km/h) Dirección del viento Racha (km/h) Dirección de racha Precipitación (mm) Presión (hPa) Tendencia (hPa) Humedad (%)
2020-01-18 23:00:00 8.8 3 Sur 7 Sur 0 -- -- 80
2020-01-18 22:00:00 9 5 Sudoeste 11 Sur 0 -- -- 75
2020-01-18 21:00:00 10.2 7 Sudoeste 12 Sudoeste 0 -- -- 71
2020-01-18 20:00:00 9.7 8 Sudoeste 13 Sudoeste 0 -- -- 75
2020-01-18 19:00:00 10.3 5 Sudoeste 13 Sudoeste 0 -- -- 70
2020-01-18 18:00:00 11.3 7 Sudoeste 17 Sudoeste 0 -- -- 62
2020-01-18 17:00:00 11.8 10 Sudoeste 23 Sudoeste 0 -- -- 58
2020-01-18 16:00:00 13.4 13 Sudoeste 22 Sudoeste 0 -- -- 51
2020-01-18 15:00:00 13.3 11 Sudoeste 23 Sudoeste 0 -- -- 50
2020-01-18 14:00:00 12.4 9 Sudoeste 16 Sudoeste 0 -- -- 58
2020-01-18 13:00:00 11.2 6 Sudoeste 13 Sur 0 -- -- 69
2020-01-18 12:00:00 10.1 4 Sudoeste 8 Sudoeste 0 -- -- 73
2020-01-18 11:00:00 8.7 5 Sudoeste 11 Sudoeste 0 -- -- 77
2020-01-18 10:00:00 7.5 0 Calma 5 Este 0 -- -- 82
2020-01-18 09:00:00 6.1 2 Este 5 Norte 0 -- -- 86
2020-01-18 08:00:00 5.1 0 Calma 5 Nordeste 0 -- -- 88
2020-01-18 07:00:00 5.3 0 Calma 5 Nordeste 0 -- -- 87
2020-01-18 06:00:00 5.8 0 Calma 5 Nordeste 0 -- -- 86
2020-01-18 05:00:00 5.9 0 Calma 5 Este 0 -- -- 82
2020-01-18 04:00:00 7.2 0 Calma 7 Nordeste 0 -- -- 80
2020-01-18 03:00:00 7.4 2 Nordeste 7 Nordeste 0 -- -- 77
2020-01-18 02:00:00 9.9 0 Calma 9 Sudoeste 0 -- -- 68
2020-01-18 01:00:00 9.2 2 Sur 7 Sur 0 -- -- 70
2020-01-18 00:00:00 8.2 0 Calma 5 Sudoeste 0 -- -- 72
2020-01-17 23:00:00 9.4 0 Calma 9 Sudoeste 0 -- -- 65
2020-01-17 22:00:00 8.2 0 Calma 6 Sur 0 -- -- 68
2020-01-17 21:00:00 10.9 2 Noroeste 12 Noroeste 0 -- -- 58
2020-01-17 20:00:00 10.8 3 Sudeste 20 Noroeste 0 -- -- 58
2020-01-17 19:00:00 12.7 7 Noroeste 24 Noroeste 0 -- -- 53
2020-01-17 18:00:00 13.3 4 Oeste 19 Noroeste 0 -- -- 51
2020-01-17 17:00:00 14.7 10 Oeste 31 Oeste 0 -- -- 44
2020-01-17 16:00:00 16.1 10 Oeste 28 Noroeste 0 -- -- 40
2020-01-17 15:00:00 16.8 9 Noroeste 40 Norte 0 -- -- 40
2020-01-17 14:00:00 16.6 12 Oeste 35 Noroeste 0 -- -- 40
2020-01-17 13:00:00 16.1 11 Oeste 28 Noroeste 0 -- -- 44
2020-01-17 12:00:00 14.4 10 Oeste 29 Oeste 0 -- -- 49
2020-01-17 11:00:00 14 8 Oeste 19 Oeste 0 -- -- 48
2020-01-17 10:00:00 11.7 6 Oeste 28 Oeste 0 -- -- 48
2020-01-17 09:00:00 10 10 Oeste 26 Oeste 0 -- -- 49
2020-01-17 08:00:00 10 9 Oeste 26 Oeste 0 -- -- 48
2020-01-17 07:00:00 8.4 0 Calma 13 Sur 0 -- -- 57
2020-01-17 06:00:00 9.4 6 Sur 18 Sur 0 -- -- 53
2020-01-17 05:00:00 1 3 Sur 7 Sur 0 -- -- 91
2020-01-17 04:00:00 0.4 0 Calma 3 Nordeste 0 -- -- 97
2020-01-17 03:00:00 0.6 2 Nordeste 4 Nordeste 0 -- -- 94
2020-01-17 02:00:00 0.9 3 Nordeste 5 Nordeste 0 -- -- 96
2020-01-17 01:00:00 1 0 Calma 3 Nordeste 0 -- -- 93
2020-01-17 00:00:00 2 0 Calma 3 Noroeste 0 -- -- 89
2020-01-16 23:00:00 2 0 Calma 3 Nordeste 0 -- -- 90
2020-01-16 22:00:00 3.3 0 Calma 4 Nordeste 0 -- -- 87
2020-01-16 21:00:00 5.1 0 Calma 4 Nordeste 0 -- -- 82
2020-01-16 20:00:00 7.1 0 Calma 7 Oeste 0 -- -- 75
2020-01-16 19:00:00 10.7 3 Oeste 11 Sur 0 -- -- 62
2020-01-16 18:00:00 13.3 6 Sur 15 Sur 0 -- -- 54
2020-01-16 17:00:00 16.3 7 Sudoeste 16 Sudoeste 0 -- -- 40
2020-01-16 16:00:00 16.6 9 Sudoeste 19 Sudoeste 0 -- -- 43
2020-01-16 15:00:00 17.2 7 Sudoeste 17 Oeste 0 -- -- 44
2020-01-16 14:00:00 17 5 Sudoeste 13 Sudoeste 0 -- -- 43
2020-01-16 13:00:00 16.3 0 Calma 7 Oeste 0 -- -- 46
2020-01-16 12:00:00 15 0 Calma 8 Norte 0 -- -- 53
2020-01-16 11:00:00 12.1 0 Calma 4 Norte 0 -- -- 61
2020-01-16 10:00:00 8.5 0 Calma 6 Nordeste 0 -- -- 73
2020-01-16 09:00:00 1.4 3 Este 5 Nordeste 0 -- -- 92
2020-01-16 08:00:00 3.1 0 Calma 6 Sudeste 0 -- -- 85
2020-01-16 07:00:00 4.3 2 Este 5 Este 0 -- -- 85
2020-01-16 06:00:00 2.7 0 Calma 4 Nordeste 0 -- -- 88
2020-01-16 05:00:00 2.6 2 Nordeste 6 Nordeste 0 -- -- 83
2020-01-16 04:00:00 4.5 2 Nordeste 9 Nordeste 0 -- -- 80
2020-01-16 03:00:00 1.5 0 Calma 5 Nordeste 0 -- -- 92
2020-01-16 02:00:00 0.9 0 Calma 5 Nordeste 0 -- -- 96
2020-01-16 01:00:00 1.1 3 Nordeste 4 Nordeste 0 -- -- 91
2020-01-16 00:00:00 1.5 4 Este 6 Nordeste 0 -- -- 90
2020-01-15 23:00:00 2 2 Nordeste 5 Nordeste 0 -- -- 87
2020-01-15 22:00:00 2.5 0 Calma 4 Nordeste 0 -- -- 83
2020-01-15 21:00:00 4.1 0 Calma 4 Norte 0 -- -- 74
2020-01-15 20:00:00 6.4 0 Calma 8 Nordeste 0 -- -- 70
2020-01-15 19:00:00 9 0 Calma 9 Sudoeste 0 -- -- 59
2020-01-15 18:00:00 13 5 Sudoeste 11 Sudoeste 0 -- -- 46
2020-01-15 17:00:00 15.5 8 Sudoeste 14 Sudoeste 0 -- -- 37
2020-01-15 16:00:00 15.4 7 Sudoeste 18 Sudoeste 0 -- -- 39
2020-01-15 15:00:00 15.7 10 Sudoeste 17 Sudoeste 0 -- -- 39
2020-01-15 14:00:00 13.9 6 Sudoeste 15 Sudoeste 0 -- -- 47
2020-01-15 13:00:00 13.3 7 Sudoeste 13 Sudoeste 0 -- -- 50
2020-01-15 12:00:00 10.9 4 Sudoeste 10 Sudoeste 0 -- -- 56
2020-01-15 11:00:00 8.5 0 Calma 8 Sudoeste 0 -- -- 67
2020-01-15 10:00:00 3.2 0 Calma 4 Sudoeste 0 -- -- 97
2020-01-15 09:00:00 -0.9 0 Calma 3 Nordeste 0 -- -- 97
2020-01-15 08:00:00 -0.8 0 Calma 3 Nordeste 0 -- -- 94
2020-01-15 07:00:00 -0.1 3 Nordeste 5 Nordeste 0 -- -- 94
2020-01-15 06:00:00 -0.7 0 Calma 6 Este 0 -- -- 96
2020-01-15 05:00:00 -0.8 4 Nordeste 6 Nordeste 0 -- -- 96
2020-01-15 04:00:00 -0.5 0 Calma 5 Nordeste 0 -- -- 94
2020-01-15 03:00:00 -0.6 2 Nordeste 4 Nordeste 0 -- -- 92
2020-01-15 02:00:00 -0.5 0 Calma 4 Nordeste 0 -- -- 90
2020-01-15 01:00:00 0.7 0 Calma 3 Este 0 -- -- 83
2020-01-15 00:00:00 3.1 0 Calma 7 Norte 0 -- -- 77
2020-01-14 23:00:00 4.9 3 Nordeste 7 Nordeste 0 -- -- 75
2020-01-14 22:00:00 1.2 0 Calma 5 Nordeste 0 -- -- 82
2020-01-14 21:00:00 1.7 2 Nordeste 5 Este 0 -- -- 79
2020-01-14 20:00:00 3.4 0 Calma 4 Nordeste 0 -- -- 71
2020-01-14 19:00:00 6.2 0 Calma 8 Sur 0 -- -- 57
2020-01-14 18:00:00 10.6 4 Sur 9 Sudoeste 0 -- -- 44
2020-01-14 17:00:00 14.4 5 Sudoeste 11 Sudoeste 0 -- -- 33
2020-01-14 16:00:00 14.5 5 Sudoeste 15 Sudoeste 0 -- -- 32
2020-01-14 15:00:00 14 9 Sudoeste 17 Oeste 0 -- -- 34
2020-01-14 14:00:00 13.7 8 Sudoeste 19 Oeste 0 -- -- 35
2020-01-14 13:00:00 12.8 3 Oeste 10 Sudoeste 0 -- -- 41
2020-01-14 12:00:00 11.3 4 Sudoeste 15 Oeste 0 -- -- 48
2020-01-14 11:00:00 9.2 2 Oeste 11 Sudoeste 0 -- -- 56
2020-01-14 10:00:00 6.2 0 Calma 10 Sudoeste 0 -- -- 68
2020-01-14 09:00:00 1.7 0 Calma 10 Norte 0 -- -- 78
2020-01-14 08:00:00 4.5 5 Nordeste 14 Nordeste 0 -- -- 74
2020-01-14 07:00:00 4.5 3 Norte 11 Norte 0 -- -- 74
2020-01-14 06:00:00 5 3 Norte 10 Norte 0 -- -- 69
2020-01-14 05:00:00 4.9 2 Norte 11 Noroeste 0 -- -- 62
2020-01-14 04:00:00 3.6 5 Norte 12 Norte 0 -- -- 69
2020-01-14 03:00:00 2.1 3 Nordeste 9 Nordeste 0 -- -- 77
2020-01-14 02:00:00 3.2 0 Calma 5 Nordeste 0 -- -- 75
2020-01-14 01:00:00 1 0 Calma 4 Nordeste 0 -- -- 82
2020-01-14 00:00:00 1.6 0 Calma 4 Oeste 0 -- -- 80
2020-01-13 23:00:00 1.6 0 Calma 4 Norte 0 -- -- 78
2020-01-13 22:00:00 4.3 0 Calma 4 Sudoeste 0 -- -- 69
2020-01-13 21:00:00 5.2 0 Calma 5 Noroeste 0 -- -- 66
2020-01-13 20:00:00 5.9 0 Calma 6 Sur 0 -- -- 62
2020-01-13 19:00:00 7.6 3 Sur 6 Sur 0 -- -- 55
2020-01-13 18:00:00 10.1 5 Sur 9 Sudoeste 0 -- -- 45
2020-01-13 17:00:00 12.5 6 Sudoeste 13 Sur 0 -- -- 38
2020-01-13 16:00:00 13.5 7 Sudoeste 14 Sudoeste 0 -- -- 39
2020-01-13 15:00:00 13.6 7 Sudoeste 14 Sudoeste 0 -- -- 39
2020-01-13 14:00:00 14.1 7 Sudoeste 15 Sudoeste 0 -- -- 33
2020-01-13 13:00:00 13.3 8 Sudoeste 16 Sudoeste 0 -- -- 38
2020-01-13 12:00:00 11.1 6 Sudoeste 11 Sudoeste 0 -- -- 53
2020-01-13 11:00:00 7.7 3 Sudoeste 5 Sudoeste 0 -- -- 75
2020-01-13 10:00:00 2.1 0 Calma 0 Calma 0 -- -- 99
2020-01-13 09:00:00 -4.2 0 Calma 2 Nordeste 0 -- -- 99
2020-01-13 08:00:00 -4.2 0 Calma 3 Nordeste 0 -- -- 99
2020-01-13 07:00:00 -3.9 0 Calma 3 Nordeste 0 -- -- 99
2020-01-13 06:00:00 -3.6 0 Calma 4 Nordeste 0 -- -- 99
2020-01-13 05:00:00 -3.4 0 Calma 3 Nordeste 0 -- -- 99
2020-01-13 04:00:00 -3 0 Calma 3 Nordeste 0 -- -- 99
2020-01-13 03:00:00 -2.6 0 Calma 2 Nordeste 0 -- -- 99
2020-01-13 02:00:00 -1.2 0 Calma 0 Calma 0 -- -- 99
2020-01-13 01:00:00 -1.4 2 Nordeste 3 Nordeste 0 -- -- 99
2020-01-13 00:00:00 -0.7 2 Nordeste 4 Nordeste 0 -- -- 99
2020-01-12 23:00:00 -0.5 0 Calma 3 Nordeste 0 -- -- 97
2020-01-12 22:00:00 0.5 0 Calma 3 Nordeste 0 -- -- 93
2020-01-12 21:00:00 1.9 0 Calma 2 Nordeste 0 -- -- 91
2020-01-12 20:00:00 3.5 0 Calma 6 Nordeste 0 -- -- 83
2020-01-12 19:00:00 6.6 0 Calma 11 Este 0 -- -- 69
2020-01-12 18:00:00 11.1 4 Sudoeste 12 Sur 0 -- -- 61
2020-01-12 17:00:00 14.4 2 Norte 12 Norte 0 -- -- 27
2020-01-12 16:00:00 14.8 4 Norte 13 Noroeste 0 -- -- 25
2020-01-12 15:00:00 14.5 5 Norte 21 Noroeste 0 -- -- 26
2020-01-12 14:00:00 13.3 10 Norte 25 Noroeste 0 -- -- 30
2020-01-12 13:00:00 12.6 7 Noroeste 18 Norte 0 -- -- 33
2020-01-12 12:00:00 11.8 3 Noroeste 15 Noroeste 0 -- -- 39
2020-01-12 11:00:00 9.1 2 Nordeste 9 Sudeste 0 -- -- 51
2020-01-12 10:00:00 2.1 0 Calma 3 Este 0 -- -- 93
2020-01-12 09:00:00 -3.1 0 Calma 3 Este 0 -- -- 99
2020-01-12 08:00:00 -2.9 0 Calma 3 Sur 0 -- -- 99
2020-01-12 07:00:00 -3 0 Calma 2 Nordeste 0 -- -- 99
2020-01-12 06:00:00 -2.7 2 Nordeste 4 Nordeste 0 -- -- 99
2020-01-12 05:00:00 -2.6 0 Calma 3 Nordeste 0 -- -- 99
2020-01-12 04:00:00 -2.3 0 Calma 3 Nordeste 0 -- -- 99
2020-01-12 03:00:00 -1.9 0 Calma 3 Nordeste 0 -- -- 99
2020-01-12 02:00:00 -1.6 0 Calma 0 Calma 0 -- -- 99
2020-01-12 01:00:00 -1 0 Calma 0 Calma 0 -- -- 99
2020-01-12 00:00:00 -0.4 0 Calma 2 Norte 0 -- -- 99
2020-01-11 23:00:00 0.4 0 Calma 3 Nordeste 0 -- -- 99
2020-01-11 22:00:00 0.8 0 Calma 3 Nordeste 0 -- -- 92
2020-01-11 21:00:00 2.2 2 Nordeste 4 Nordeste 0 -- -- 88
2020-01-11 20:00:00 4.4 0 Calma 4 Nordeste 0 -- -- 77
2020-01-11 19:00:00 7 0 Calma 8 Nordeste 0 -- -- 65
2020-01-11 18:00:00 10.2 0 Calma 9 Nordeste 0 -- -- 51
2020-01-11 17:00:00 12.7 5 Nordeste 15 Nordeste 0 -- -- 39
2020-01-11 16:00:00 13.3 7 Nordeste 17 Oeste 0 -- -- 39
2020-01-11 15:00:00 13.8 0 Calma 16 Nordeste 0 -- -- 39
2020-01-11 14:00:00 13.4 5 Nordeste 17 Nordeste 0 -- -- 43
2020-01-11 13:00:00 12.6 4 Este 17 Noroeste 0 -- -- 46
2020-01-11 12:00:00 11.3 6 Norte 18 Norte 0 -- -- 52
2020-01-11 11:00:00 9.3 5 Norte 12 Norte 0 -- -- 58
2020-01-11 10:00:00 7.4 3 Este 8 Nordeste 0 -- -- 71
2020-01-11 09:00:00 2.5 2 Este 6 Nordeste 0 -- -- 92
2020-01-11 08:00:00 2.9 2 Nordeste 6 Este 0 -- -- 85
2020-01-11 07:00:00 4.2 3 Este 7 Este 0 -- -- 84
2020-01-11 06:00:00 5.3 2 Norte 13 Norte 0 -- -- 80
2020-01-11 05:00:00 6.7 4 Norte 12 Noroeste 0 -- -- 77
2020-01-11 04:00:00 6.7 5 Noroeste 15 Noroeste 0 -- -- 81
2020-01-11 03:00:00 6.1 3 Nordeste 9 Nordeste 0 -- -- 84
2020-01-11 02:00:00 6.1 4 Nordeste 17 Nordeste 0 -- -- 85
2020-01-11 01:00:00 7.4 8 Nordeste 16 Nordeste 0 -- -- 80
2020-01-11 00:00:00 7.7 8 Norte 30 Nordeste 0 -- -- 77
2020-01-10 23:00:00 7.3 11 Nordeste 37 Nordeste 0 -- -- 77
2020-01-10 22:00:00 7.7 21 Nordeste 40 Nordeste 0 -- -- 76
2020-01-10 21:00:00 7.8 21 Nordeste 47 Nordeste 0 -- -- 75
2020-01-10 20:00:00 7.9 23 Nordeste 44 Norte 0 -- -- 73
2020-01-10 19:00:00 8 18 Nordeste 39 Nordeste 0 -- -- 72
2020-01-10 18:00:00 9.5 18 Nordeste 29 Nordeste 0 -- -- 58
2020-01-10 17:00:00 12.1 14 Nordeste 28 Norte 0 -- -- 41
2020-01-10 16:00:00 12.6 16 Nordeste 33 Nordeste 0 -- -- 43
2020-01-10 15:00:00 13.5 15 Norte 31 Nordeste 0 -- -- 43
2020-01-10 14:00:00 12.5 11 Norte 29 Noroeste 0 -- -- 49
2020-01-10 13:00:00 11 10 Noroeste 23 Noroeste 0 -- -- 61
2020-01-10 12:00:00 9.7 10 Norte 30 Noroeste 0 -- -- 68
2020-01-10 11:00:00 9.4 12 Norte 26 Noroeste 0 -- -- 71
2020-01-10 10:00:00 8.6 5 Norte 18 Noroeste 0 -- -- 76
2020-01-10 09:00:00 7.5 5 Norte 28 Norte 0 -- -- 78
2020-01-10 08:00:00 6.8 3 Norte 15 Noroeste 0 -- -- 82
2020-01-10 07:00:00 8 7 Norte 23 Noroeste 0 -- -- 76
2020-01-10 06:00:00 7.4 6 Nordeste 22 Noroeste 0 -- -- 78
2020-01-10 05:00:00 5.9 5 Norte 22 Noroeste 0 -- -- 99
2020-01-10 04:00:00 4.3 4 Sur 7 Sur 0 -- -- 99
2020-01-10 03:00:00 2.2 3 Nordeste 5 Nordeste 0 -- -- 99
2020-01-10 02:00:00 1.7 0 Calma 2 Este 0 -- -- 99
2020-01-10 01:00:00 2.3 0 Calma 3 Este 0 -- -- 99
2020-01-10 00:00:00 3.4 0 Calma 3 Nordeste 0 -- -- 99
2020-01-09 23:00:00 4.8 0 Calma 3 Este 0 -- -- 93
2020-01-09 22:00:00 6.4 0 Calma 7 Sur 0 -- -- 89
2020-01-09 21:00:00 5.8 0 Calma 2 Nordeste 0 -- -- 89
2020-01-09 20:00:00 7.1 0 Calma 14 Sur 0 -- -- 80
2020-01-09 19:00:00 8.9 5 Sur 14 Sur 0 -- -- 76
2020-01-09 18:00:00 10.5 4 Sur 12 Sudoeste 0 -- -- 69
2020-01-09 17:00:00 13.4 4 Sudoeste 8 Sudoeste 0 -- -- 57
2020-01-09 16:00:00 13.9 5 Sudoeste 11 Sudoeste 0 -- -- 54
2020-01-09 15:00:00 14.2 4 Sur 13 Sudoeste 0 -- -- 56
2020-01-09 14:00:00 13.5 3 Sudoeste 13 Sudoeste 0 -- -- 59
2020-01-09 13:00:00 11.7 4 Sudoeste 13 Sudoeste 0 -- -- 66
2020-01-09 12:00:00 10.8 2 Sudoeste 6 Sudoeste 0 -- -- 78
2020-01-09 11:00:00 7.2 0 Calma 5 Norte 0 -- -- 99
2020-01-09 10:00:00 5.9 3 Nordeste 5 Nordeste 0 -- -- --
2020-01-09 09:00:00 4.5 3 Nordeste 6 Nordeste 0 -- -- --
2020-01-09 08:00:00 5.2 3 Nordeste 5 Nordeste 0 -- -- --
2020-01-09 07:00:00 5.1 0 Calma 5 Nordeste 0 -- -- --
2020-01-09 06:00:00 4.7 3 Nordeste 7 Nordeste 0 -- -- --
2020-01-09 05:00:00 4.9 2 Nordeste 5 Norte 0 -- -- --
2020-01-09 04:00:00 4.9 2 Nordeste 5 Nordeste 0 -- -- --
2020-01-09 03:00:00 5.2 2 Nordeste 5 Nordeste 0.2 -- -- 99
2020-01-09 02:00:00 5.2 0 Calma 6 Nordeste 0 -- -- 99
2020-01-09 01:00:00 5.5 2 Nordeste 5 Nordeste 0 -- -- 99
2020-01-09 00:00:00 5.4 0 Calma 3 Este 0 -- -- 99
2020-01-08 23:00:00 5 0 Calma 5 Nordeste 0 -- -- 99
2020-01-08 22:00:00 5 2 Este 4 Nordeste 0 -- -- 99
2020-01-08 21:00:00 4.8 3 Nordeste 6 Nordeste 0 -- -- 99
2020-01-08 20:00:00 4.8 3 Nordeste 5 Nordeste 0 -- -- 91
2020-01-08 19:00:00 7.2 0 Calma 3 Norte 0 -- -- 82
2020-01-08 18:00:00 10.4 0 Calma 7 Nordeste 0 -- -- 74
2020-01-08 17:00:00 12.6 6 Nordeste 11 Este 0 -- -- 67
2020-01-08 16:00:00 14.8 2 Sur 17 Nordeste 0 -- -- 54
2020-01-08 15:00:00 14.1 13 Nordeste 19 Este 0 -- -- 55
2020-01-08 14:00:00 14.9 10 Nordeste 17 Nordeste 0 -- -- 49
2020-01-08 13:00:00 15 8 Este 19 Este 0 -- -- 44
2020-01-08 12:00:00 13.9 10 Nordeste 16 Nordeste 0 -- -- 47
2020-01-08 11:00:00 11.6 2 Nordeste 7 Nordeste 0 -- -- 51
2020-01-08 10:00:00 8.1 0 Calma 6 Este 0 -- -- 66
2020-01-08 09:00:00 1.9 3 Este 6 Este 0 -- -- 89
2020-01-08 08:00:00 -0.6 0 Calma 4 Nordeste 0 -- -- 93
2020-01-08 07:00:00 0.4 0 Calma 3 Nordeste 0 -- -- 90
2020-01-08 06:00:00 1.7 0 Calma 5 Este 0 -- -- 86
2020-01-08 05:00:00 0.1 2 Este 6 Nordeste 0 -- -- 96
2020-01-08 04:00:00 -0.8 0 Calma 5 Nordeste 0 -- -- 97
2020-01-08 03:00:00 -0.3 0 Calma 4 Nordeste 0 -- -- 98
2020-01-08 02:00:00 -0.1 0 Calma 3 Nordeste 0 -- -- 97
2020-01-08 01:00:00 0.3 2 Nordeste 5 Nordeste 0 -- -- 98
2020-01-08 00:00:00 0.5 0 Calma 5 Nordeste 0 -- -- 99
2020-01-07 23:00:00 0.6 0 Calma 3 Nordeste 0 -- -- 99
2020-01-07 22:00:00 1.2 0 Calma 3 Nordeste 0 -- -- 97
2020-01-07 21:00:00 2.6 0 Calma 4 Nordeste 0 -- -- 92
2020-01-07 20:00:00 4.3 0 Calma 3 Este 0 -- -- 86
2020-01-07 19:00:00 7.2 0 Calma 6 Sudoeste 0 -- -- 77
2020-01-07 18:00:00 11.1 4 Sudoeste 14 Sudoeste 0 -- -- 65
2020-01-07 17:00:00 14.5 8 Sudoeste 13 Sudoeste 0 -- -- 52
2020-01-07 16:00:00 15.9 6 Sudoeste 11 Sudoeste 0 -- -- 42
2020-01-07 15:00:00 16 5 Sudoeste 11 Sudoeste 0 -- -- 38
2020-01-07 14:00:00 15.4 5 Sudoeste 12 Sudoeste 0 -- -- 40
2020-01-07 13:00:00 13.8 7 Sudoeste 12 Sudoeste 0 -- -- 40
2020-01-07 12:00:00 12.8 0 Calma 4 Noroeste 0 -- -- 49
2020-01-07 11:00:00 10.2 0 Calma 5 Norte 0 -- -- 57
2020-01-07 10:00:00 4.1 2 Nordeste 4 Este 0 -- -- 82
2020-01-07 09:00:00 -1.1 2 Nordeste 3 Nordeste 0 -- -- 94
2020-01-07 08:00:00 -0.8 2 Nordeste 6 Nordeste 0 -- -- 92
2020-01-07 07:00:00 -0.2 0 Calma 5 Este 0 -- -- 88
2020-01-07 06:00:00 2.7 0 Calma 5 Este 0 -- -- 76
2020-01-07 05:00:00 4.2 0 Calma 8 Este 0 -- -- 76
2020-01-07 04:00:00 2.1 2 Este 6 Nordeste 0 -- -- 89
2020-01-07 03:00:00 -0.1 3 Nordeste 7 Nordeste 0 -- -- 99
2020-01-07 02:00:00 -0.5 2 Nordeste 4 Nordeste 0 -- -- 99
2020-01-07 01:00:00 -0.2 0 Calma 6 Nordeste 0 -- -- 99
2020-01-07 00:00:00 0.2 0 Calma 5 Nordeste 0 -- -- 99
2020-01-06 23:00:00 0.5 0 Calma 3 Nordeste 0 -- -- 99
2020-01-06 22:00:00 1.2 0 Calma 2 Nordeste 0 -- -- 97
2020-01-06 21:00:00 2.2 0 Calma 3 Nordeste 0 -- -- 90
2020-01-06 20:00:00 3.9 0 Calma 3 Nordeste 0 -- -- 86
2020-01-06 19:00:00 6.5 0 Calma 5 Sur 0 -- -- 76
2020-01-06 18:00:00 10.8 3 Sur 13 Sudoeste 0 -- -- 61
2020-01-06 17:00:00 14.2 7 Sudoeste 13 Sudoeste 0 -- -- 50
2020-01-06 16:00:00 16.1 3 Sudoeste 9 Sur 0 -- -- 35
2020-01-06 15:00:00 16 2 Oeste 12 Sudoeste 0 -- -- 33
2020-01-06 14:00:00 15.6 5 Sudoeste 12 Oeste 0 -- -- 35
2020-01-06 13:00:00 14 5 Sudoeste 9 Sudoeste 0 -- -- 42
2020-01-06 12:00:00 11.6 0 Calma 4 Noroeste 0 -- -- 57
2020-01-06 11:00:00 7.1 0 Calma 7 Norte 0 -- -- 90
2020-01-06 10:00:00 3.5 2 Norte 5 Nordeste 0 -- -- --